sensor_id;sensor_type;location;lat;lon;timestamp;temperature;humidity
13091;DHT22;6611;52.604;13.438;2022-09-09T00:03:44;15.12;91.84
13091;DHT22;6611;52.604;13.438;2022-09-09T00:08:54;15.08;91.30
13091;DHT22;6611;52.604;13.438;2022-09-09T00:14:03;15.09;90.87
13091;DHT22;6611;52.604;13.438;2022-09-09T00:19:17;14.98;90.85
13091;DHT22;6611;52.604;13.438;2022-09-09T00:24:26;14.98;90.32
13091;DHT22;6611;52.604;13.438;2022-09-09T00:29:34;14.98;90.63
13091;DHT22;6611;52.604;13.438;2022-09-09T00:34:39;14.92;90.51
13091;DHT22;6611;52.604;13.438;2022-09-09T00:39:45;14.83;90.66
13091;DHT22;6611;52.604;13.438;2022-09-09T00:44:59;14.72;91.30
13091;DHT22;6611;52.604;13.438;2022-09-09T00:50:17;14.59;91.58
13091;DHT22;6611;52.604;13.438;2022-09-09T00:55:28;14.66;90.83
13091;DHT22;6611;52.604;13.438;2022-09-09T01:00:41;14.55;91.17
13091;DHT22;6611;52.604;13.438;2022-09-09T01:05:48;14.56;91.27
13091;DHT22;6611;52.604;13.438;2022-09-09T01:10:54;14.46;91.57
13091;DHT22;6611;52.604;13.438;2022-09-09T01:15:57;14.39;92.17
13091;DHT22;6611;52.604;13.438;2022-09-09T01:21:04;14.32;92.53
13091;DHT22;6611;52.604;13.438;2022-09-09T01:26:15;14.45;91.57
13091;DHT22;6611;52.604;13.438;2022-09-09T01:31:19;14.38;91.58
13091;DHT22;6611;52.604;13.438;2022-09-09T01:36:28;14.35;92.15
13091;DHT22;6611;52.604;13.438;2022-09-09T01:41:31;14.28;91.96
13091;DHT22;6611;52.604;13.438;2022-09-09T01:46:33;14.25;92.12
13091;DHT22;6611;52.604;13.438;2022-09-09T01:51:36;14.30;91.87
13091;DHT22;6611;52.604;13.438;2022-09-09T01:56:47;14.25;91.93
13091;DHT22;6611;52.604;13.438;2022-09-09T02:02:00;14.25;92.25
13091;DHT22;6611;52.604;13.438;2022-09-09T02:07:13;14.24;91.43
13091;DHT22;6611;52.604;13.438;2022-09-09T02:12:19;14.11;92.01
13091;DHT22;6611;52.604;13.438;2022-09-09T02:17:27;14.10;91.55
13091;DHT22;6611;52.604;13.438;2022-09-09T02:22:31;14.05;91.84
13091;DHT22;6611;52.604;13.438;2022-09-09T02:27:36;14.04;91.60
13091;DHT22;6611;52.604;13.438;2022-09-09T02:32:38;14.07;91.12
13091;DHT22;6611;52.604;13.438;2022-09-09T02:37:42;13.95;91.56
13091;DHT22;6611;52.604;13.438;2022-09-09T02:42:48;13.90;91.85
13091;DHT22;6611;52.604;13.438;2022-09-09T02:47:55;13.93;91.95
13091;DHT22;6611;52.604;13.438;2022-09-09T02:53:06;13.97;91.66
13091;DHT22;6611;52.604;13.438;2022-09-09T02:58:14;13.90;91.79
13091;DHT22;6611;52.604;13.438;2022-09-09T03:03:18;13.87;91.68
13091;DHT22;6611;52.604;13.438;2022-09-09T03:08:20;13.85;92.02
13091;DHT22;6611;52.604;13.438;2022-09-09T03:13:22;13.85;91.52
13091;DHT22;6611;52.604;13.438;2022-09-09T03:18:25;13.80;91.45
13091;DHT22;6611;52.604;13.438;2022-09-09T03:23:28;13.78;91.37
13091;DHT22;6611;52.604;13.438;2022-09-09T03:28:31;13.70;91.30
13091;DHT22;6611;52.604;13.438;2022-09-09T03:33:33;13.63;91.42
13091;DHT22;6611;52.604;13.438;2022-09-09T03:38:36;13.62;91.11
13091;DHT22;6611;52.604;13.438;2022-09-09T03:43:39;13.58;91.77
13091;DHT22;6611;52.604;13.438;2022-09-09T03:48:42;13.53;91.71
13091;DHT22;6611;52.604;13.438;2022-09-09T03:53:44;13.53;91.94
13091;DHT22;6611;52.604;13.438;2022-09-09T03:58:47;13.50;91.70
13091;DHT22;6611;52.604;13.438;2022-09-09T04:03:48;13.50;92.19
13091;DHT22;6611;52.604;13.438;2022-09-09T04:08:50;13.48;91.83
13091;DHT22;6611;52.604;13.438;2022-09-09T04:13:54;13.43;91.90
13091;DHT22;6611;52.604;13.438;2022-09-09T04:18:55;13.38;91.92
13091;DHT22;6611;52.604;13.438;2022-09-09T04:23:58;13.35;91.30
13091;DHT22;6611;52.604;13.438;2022-09-09T04:29:01;13.39;91.16
13091;DHT22;6611;52.604;13.438;2022-09-09T04:34:04;13.34;91.47
13091;DHT22;6611;52.604;13.438;2022-09-09T04:39:06;13.41;90.95
13091;DHT22;6611;52.604;13.438;2022-09-09T04:44:09;13.34;91.17
13091;DHT22;6611;52.604;13.438;2022-09-09T04:49:11;13.38;91.21
13091;DHT22;6611;52.604;13.438;2022-09-09T04:54:12;13.35;91.62
13091;DHT22;6611;52.604;13.438;2022-09-09T04:59:15;13.29;91.50
13091;DHT22;6611;52.604;13.438;2022-09-09T05:04:17;13.41;91.14
13091;DHT22;6611;52.604;13.438;2022-09-09T05:09:19;13.43;91.30
13091;DHT22;6611;52.604;13.438;2022-09-09T05:14:22;13.49;91.17
13091;DHT22;6611;52.604;13.438;2022-09-09T05:19:24;13.52;91.56
13091;DHT22;6611;52.604;13.438;2022-09-09T05:24:25;13.70;92.07
13091;DHT22;6611;52.604;13.438;2022-09-09T05:29:28;13.97;91.62
13091;DHT22;6611;52.604;13.438;2022-09-09T05:34:30;14.18;91.44
13091;DHT22;6611;52.604;13.438;2022-09-09T05:39:31;14.43;91.47
13091;DHT22;6611;52.604;13.438;2022-09-09T05:44:34;14.80;90.91
13091;DHT22;6611;52.604;13.438;2022-09-09T05:49:36;15.11;90.89
13091;DHT22;6611;52.604;13.438;2022-09-09T05:54:37;15.31;90.48
13091;DHT22;6611;52.604;13.438;2022-09-09T05:59:41;15.36;90.48
13091;DHT22;6611;52.604;13.438;2022-09-09T06:04:43;15.57;90.26
13091;DHT22;6611;52.604;13.438;2022-09-09T06:09:44;15.81;90.00
13091;DHT22;6611;52.604;13.438;2022-09-09T06:14:47;16.04;90.18
13091;DHT22;6611;52.604;13.438;2022-09-09T06:19:51;16.30;90.54
13091;DHT22;6611;52.604;13.438;2022-09-09T06:24:52;16.40;89.52
13091;DHT22;6611;52.604;13.438;2022-09-09T06:29:56;16.70;89.50
13091;DHT22;6611;52.604;13.438;2022-09-09T06:34:57;16.84;88.96
13091;DHT22;6611;52.604;13.438;2022-09-09T06:40:02;16.94;88.11
13091;DHT22;6611;52.604;13.438;2022-09-09T06:45:06;17.12;88.71
13091;DHT22;6611;52.604;13.438;2022-09-09T06:50:08;17.35;87.99
13091;DHT22;6611;52.604;13.438;2022-09-09T06:55:11;16.87;88.31
13091;DHT22;6611;52.604;13.438;2022-09-09T07:00:15;16.56;88.25
13091;DHT22;6611;52.604;13.438;2022-09-09T07:05:17;16.55;88.70
13091;DHT22;6611;52.604;13.438;2022-09-09T07:10:18;16.92;89.48
13091;DHT22;6611;52.604;13.438;2022-09-09T07:15:21;17.37;88.07
13091;DHT22;6611;52.604;13.438;2022-09-09T07:20:23;17.74;87.49
13091;DHT22;6611;52.604;13.438;2022-09-09T07:25:25;18.05;84.01
13091;DHT22;6611;52.604;13.438;2022-09-09T07:30:29;18.13;84.47
13091;DHT22;6611;52.604;13.438;2022-09-09T07:35:31;18.34;83.64
13091;DHT22;6611;52.604;13.438;2022-09-09T07:40:32;18.30;83.07
13091;DHT22;6611;52.604;13.438;2022-09-09T07:45:35;18.26;83.06
13091;DHT22;6611;52.604;13.438;2022-09-09T07:50:37;18.33;82.64
13091;DHT22;6611;52.604;13.438;2022-09-09T07:55:39;18.70;82.18
13091;DHT22;6611;52.604;13.438;2022-09-09T08:00:42;19.12;78.77
13091;DHT22;6611;52.604;13.438;2022-09-09T08:05:44;19.30;81.07
13091;DHT22;6611;52.604;13.438;2022-09-09T08:10:45;19.64;81.23
13091;DHT22;6611;52.604;13.438;2022-09-09T08:15:48;19.79;77.85
13091;DHT22;6611;52.604;13.438;2022-09-09T08:20:51;19.79;78.95
13091;DHT22;6611;52.604;13.438;2022-09-09T08:25:53;19.77;75.36
13091;DHT22;6611;52.604;13.438;2022-09-09T08:31:04;19.79;76.55
13091;DHT22;6611;52.604;13.438;2022-09-09T08:36:09;19.79;79.31
13091;DHT22;6611;52.604;13.438;2022-09-09T08:41:29;19.39;76.45
13091;DHT22;6611;52.604;13.438;2022-09-09T08:46:42;19.20;78.52
13091;DHT22;6611;52.604;13.438;2022-09-09T08:51:46;19.27;79.73
13091;DHT22;6611;52.604;13.438;2022-09-09T08:56:48;19.19;77.09
13091;DHT22;6611;52.604;13.438;2022-09-09T09:01:57;19.27;77.05
13091;DHT22;6611;52.604;13.438;2022-09-09T09:07:10;19.26;78.86
13091;DHT22;6611;52.604;13.438;2022-09-09T09:12:17;19.34;78.46
13091;DHT22;6611;52.604;13.438;2022-09-09T09:17:23;19.30;78.95
13091;DHT22;6611;52.604;13.438;2022-09-09T09:22:31;19.47;76.71
13091;DHT22;6611;52.604;13.438;2022-09-09T09:27:42;19.74;77.87
13091;DHT22;6611;52.604;13.438;2022-09-09T09:32:52;20.09;76.26
13091;DHT22;6611;52.604;13.438;2022-09-09T09:37:55;20.20;74.75
13091;DHT22;6611;52.604;13.438;2022-09-09T09:42:58;20.65;76.24
13091;DHT22;6611;52.604;13.438;2022-09-09T09:48:04;20.82;74.98
13091;DHT22;6611;52.604;13.438;2022-09-09T09:53:17;20.85;74.06
13091;DHT22;6611;52.604;13.438;2022-09-09T09:58:19;21.06;70.15
13091;DHT22;6611;52.604;13.438;2022-09-09T10:03:25;21.02;70.10
13091;DHT22;6611;52.604;13.438;2022-09-09T10:08:27;20.94;71.43
13091;DHT22;6611;52.604;13.438;2022-09-09T10:13:33;21.18;69.67
13091;DHT22;6611;52.604;13.438;2022-09-09T10:18:50;21.30;69.73
13091;DHT22;6611;52.604;13.438;2022-09-09T10:24:08;21.22;70.65
13091;DHT22;6611;52.604;13.438;2022-09-09T10:29:25;21.29;69.00
13091;DHT22;6611;52.604;13.438;2022-09-09T10:34:45;21.16;70.50
13091;DHT22;6611;52.604;13.438;2022-09-09T10:39:55;21.36;71.23
13091;DHT22;6611;52.604;13.438;2022-09-09T10:45:13;21.57;70.88
13091;DHT22;6611;52.604;13.438;2022-09-09T10:50:50;21.62;67.50
13091;DHT22;6611;52.604;13.438;2022-09-09T10:55:56;21.41;70.24
13091;DHT22;6611;52.604;13.438;2022-09-09T11:01:05;21.32;68.58
13091;DHT22;6611;52.604;13.438;2022-09-09T11:06:15;21.15;70.34
13091;DHT22;6611;52.604;13.438;2022-09-09T11:11:21;21.58;68.29
13091;DHT22;6611;52.604;13.438;2022-09-09T11:16:28;21.81;69.13
13091;DHT22;6611;52.604;13.438;2022-09-09T11:21:35;22.17;68.58
13091;DHT22;6611;52.604;13.438;2022-09-09T11:26:43;22.23;67.05
13091;DHT22;6611;52.604;13.438;2022-09-09T11:31:58;22.40;64.31
13091;DHT22;6611;52.604;13.438;2022-09-09T11:37:29;22.20;64.89
13091;DHT22;6611;52.604;13.438;2022-09-09T11:42:38;22.27;63.99
13091;DHT22;6611;52.604;13.438;2022-09-09T11:47:39;22.57;62.26
13091;DHT22;6611;52.604;13.438;2022-09-09T11:52:44;22.82;63.49
13091;DHT22;6611;52.604;13.438;2022-09-09T11:57:46;22.71;64.62
13091;DHT22;6611;52.604;13.438;2022-09-09T12:02:48;22.81;63.90
13091;DHT22;6611;52.604;13.438;2022-09-09T12:07:56;22.94;63.49
13091;DHT22;6611;52.604;13.438;2022-09-09T12:13:08;23.17;60.45
13091;DHT22;6611;52.604;13.438;2022-09-09T12:18:15;23.16;61.19
13091;DHT22;6611;52.604;13.438;2022-09-09T12:23:30;23.07;63.18
13091;DHT22;6611;52.604;13.438;2022-09-09T12:28:45;23.31;60.77
13091;DHT22;6611;52.604;13.438;2022-09-09T12:33:49;23.12;60.14
13091;DHT22;6611;52.604;13.438;2022-09-09T12:38:54;22.78;62.25
13091;DHT22;6611;52.604;13.438;2022-09-09T12:44:03;22.99;60.22
13091;DHT22;6611;52.604;13.438;2022-09-09T12:49:24;22.41;59.88
13091;DHT22;6611;52.604;13.438;2022-09-09T12:54:28;22.24;61.00
13091;DHT22;6611;52.604;13.438;2022-09-09T12:59:36;22.41;60.01
13091;DHT22;6611;52.604;13.438;2022-09-09T13:04:38;22.46;61.79
13091;DHT22;6611;52.604;13.438;2022-09-09T13:09:41;22.58;60.45
13091;DHT22;6611;52.604;13.438;2022-09-09T13:14:44;22.14;62.38
13091;DHT22;6611;52.604;13.438;2022-09-09T13:19:48;21.92;61.67
13091;DHT22;6611;52.604;13.438;2022-09-09T13:25:04;21.91;61.84
13091;DHT22;6611;52.604;13.438;2022-09-09T13:30:23;21.89;61.62
13091;DHT22;6611;52.604;13.438;2022-09-09T13:35:26;21.89;63.66
13091;DHT22;6611;52.604;13.438;2022-09-09T13:40:28;21.82;63.13
13091;DHT22;6611;52.604;13.438;2022-09-09T13:45:30;21.86;64.08
13091;DHT22;6611;52.604;13.438;2022-09-09T13:50:34;21.92;63.76
13091;DHT22;6611;52.604;13.438;2022-09-09T13:55:37;22.03;64.06
13091;DHT22;6611;52.604;13.438;2022-09-09T14:00:39;22.36;60.13
13091;DHT22;6611;52.604;13.438;2022-09-09T14:05:41;22.39;58.72
13091;DHT22;6611;52.604;13.438;2022-09-09T14:10:44;22.60;59.42
13091;DHT22;6611;52.604;13.438;2022-09-09T14:15:45;22.69;61.19
13091;DHT22;6611;52.604;13.438;2022-09-09T14:20:47;22.55;58.67
13091;DHT22;6611;52.604;13.438;2022-09-09T14:25:51;22.27;60.16
13091;DHT22;6611;52.604;13.438;2022-09-09T14:30:52;22.26;60.62
13091;DHT22;6611;52.604;13.438;2022-09-09T14:35:55;22.26;60.67
13091;DHT22;6611;52.604;13.438;2022-09-09T14:40:58;22.35;61.44
13091;DHT22;6611;52.604;13.438;2022-09-09T14:46:05;22.10;59.50
13091;DHT22;6611;52.604;13.438;2022-09-09T14:51:07;21.91;60.99
13091;DHT22;6611;52.604;13.438;2022-09-09T14:56:12;21.88;60.97
13091;DHT22;6611;52.604;13.438;2022-09-09T15:01:16;21.91;63.31
13091;DHT22;6611;52.604;13.438;2022-09-09T15:06:18;21.96;61.94
13091;DHT22;6611;52.604;13.438;2022-09-09T15:11:22;21.65;63.15
13091;DHT22;6611;52.604;13.438;2022-09-09T15:16:27;21.69;63.09
13091;DHT22;6611;52.604;13.438;2022-09-09T15:21:30;21.81;61.83
13091;DHT22;6611;52.604;13.438;2022-09-09T15:26:34;21.85;61.76
13091;DHT22;6611;52.604;13.438;2022-09-09T15:31:38;22.02;61.74
13091;DHT22;6611;52.604;13.438;2022-09-09T15:36:41;22.29;62.52
13091;DHT22;6611;52.604;13.438;2022-09-09T15:41:45;22.63;59.42
13091;DHT22;6611;52.604;13.438;2022-09-09T15:46:49;22.37;59.98
13091;DHT22;6611;52.604;13.438;2022-09-09T15:51:52;22.03;59.20
13091;DHT22;6611;52.604;13.438;2022-09-09T15:56:57;21.95;60.41
13091;DHT22;6611;52.604;13.438;2022-09-09T16:01:59;21.85;60.40
13091;DHT22;6611;52.604;13.438;2022-09-09T16:07:03;21.71;62.78
13091;DHT22;6611;52.604;13.438;2022-09-09T16:12:06;21.57;62.25
13091;DHT22;6611;52.604;13.438;2022-09-09T16:17:10;21.33;66.29
13091;DHT22;6611;52.604;13.438;2022-09-09T16:22:11;21.05;69.13
13091;DHT22;6611;52.604;13.438;2022-09-09T16:27:16;20.84;70.90
13091;DHT22;6611;52.604;13.438;2022-09-09T16:32:18;20.68;71.53
13091;DHT22;6611;52.604;13.438;2022-09-09T16:37:20;20.58;73.35
13091;DHT22;6611;52.604;13.438;2022-09-09T16:42:23;20.53;73.28
13091;DHT22;6611;52.604;13.438;2022-09-09T16:47:24;20.41;73.86
13091;DHT22;6611;52.604;13.438;2022-09-09T16:52:26;20.36;73.97
13091;DHT22;6611;52.604;13.438;2022-09-09T16:57:29;20.25;74.09
13091;DHT22;6611;52.604;13.438;2022-09-09T17:02:30;20.08;73.78
13091;DHT22;6611;52.604;13.438;2022-09-09T17:07:32;19.93;74.79
13091;DHT22;6611;52.604;13.438;2022-09-09T17:12:35;19.79;74.69
13091;DHT22;6611;52.604;13.438;2022-09-09T17:17:37;19.67;75.25
13091;DHT22;6611;52.604;13.438;2022-09-09T17:22:38;19.50;75.76
13091;DHT22;6611;52.604;13.438;2022-09-09T17:27:41;19.31;76.74
13091;DHT22;6611;52.604;13.438;2022-09-09T17:32:42;19.22;76.30
13091;DHT22;6611;52.604;13.438;2022-09-09T17:37:44;19.37;73.60
13091;DHT22;6611;52.604;13.438;2022-09-09T17:42:47;19.45;73.26
13091;DHT22;6611;52.604;13.438;2022-09-09T17:47:49;19.45;71.87
13091;DHT22;6611;52.604;13.438;2022-09-09T17:52:50;19.43;72.56
13091;DHT22;6611;52.604;13.438;2022-09-09T17:57:53;19.30;74.76
13091;DHT22;6611;52.604;13.438;2022-09-09T18:02:55;19.18;73.57
13091;DHT22;6611;52.604;13.438;2022-09-09T18:07:56;19.12;71.41
13091;DHT22;6611;52.604;13.438;2022-09-09T18:12:59;19.13;69.72
13091;DHT22;6611;52.604;13.438;2022-09-09T18:18:01;19.02;73.86
13091;DHT22;6611;52.604;13.438;2022-09-09T18:23:06;18.94;71.95
13091;DHT22;6611;52.604;13.438;2022-09-09T18:28:09;18.85;69.53
13091;DHT22;6611;52.604;13.438;2022-09-09T18:33:11;18.70;71.49
13091;DHT22;6611;52.604;13.438;2022-09-09T18:38:12;18.50;72.87
13091;DHT22;6611;52.604;13.438;2022-09-09T18:44:50;18.39;72.98
13091;DHT22;6611;52.604;13.438;2022-09-09T18:49:51;18.17;75.04
13091;DHT22;6611;52.604;13.438;2022-09-09T18:54:53;18.01;72.64
13091;DHT22;6611;52.604;13.438;2022-09-09T18:59:56;18.04;72.69
13091;DHT22;6611;52.604;13.438;2022-09-09T19:04:58;18.06;73.30
13091;DHT22;6611;52.604;13.438;2022-09-09T19:10:02;17.91;73.82
13091;DHT22;6611;52.604;13.438;2022-09-09T19:15:06;17.85;74.44
13091;DHT22;6611;52.604;13.438;2022-09-09T19:20:08;17.67;74.75
13091;DHT22;6611;52.604;13.438;2022-09-09T19:25:10;17.61;75.48
13091;DHT22;6611;52.604;13.438;2022-09-09T19:30:13;17.69;75.40
13091;DHT22;6611;52.604;13.438;2022-09-09T19:35:15;17.60;75.90
13091;DHT22;6611;52.604;13.438;2022-09-09T19:40:18;17.59;76.03
13091;DHT22;6611;52.604;13.438;2022-09-09T19:45:22;17.51;76.06
13091;DHT22;6611;52.604;13.438;2022-09-09T19:50:24;17.40;77.08
13091;DHT22;6611;52.604;13.438;2022-09-09T19:55:25;17.37;77.22
13091;DHT22;6611;52.604;13.438;2022-09-09T20:00:28;17.35;76.16
13091;DHT22;6611;52.604;13.438;2022-09-09T20:05:30;17.26;76.67
13091;DHT22;6611;52.604;13.438;2022-09-09T20:10:32;17.20;76.99
13091;DHT22;6611;52.604;13.438;2022-09-09T20:15:35;17.11;76.54
13091;DHT22;6611;52.604;13.438;2022-09-09T20:20:39;17.18;76.43
13091;DHT22;6611;52.604;13.438;2022-09-09T20:25:40;17.02;75.76
13091;DHT22;6611;52.604;13.438;2022-09-09T20:30:44;16.98;76.64
13091;DHT22;6611;52.604;13.438;2022-09-09T20:35:46;16.84;75.53
13091;DHT22;6611;52.604;13.438;2022-09-09T20:40:48;16.83;75.63
13091;DHT22;6611;52.604;13.438;2022-09-09T20:45:51;16.85;75.99
13091;DHT22;6611;52.604;13.438;2022-09-09T20:51:01;16.84;75.19
13091;DHT22;6611;52.604;13.438;2022-09-09T20:56:05;16.84;75.27
13091;DHT22;6611;52.604;13.438;2022-09-09T21:01:13;16.85;76.67
13091;DHT22;6611;52.604;13.438;2022-09-09T21:06:15;16.87;76.41
13091;DHT22;6611;52.604;13.438;2022-09-09T21:11:17;16.78;77.79
13091;DHT22;6611;52.604;13.438;2022-09-09T21:16:20;16.67;78.29
13091;DHT22;6611;52.604;13.438;2022-09-09T21:21:21;16.59;78.42
13091;DHT22;6611;52.604;13.438;2022-09-09T21:26:23;16.55;77.47
13091;DHT22;6611;52.604;13.438;2022-09-09T21:31:26;16.45;78.44
13091;DHT22;6611;52.604;13.438;2022-09-09T21:36:28;16.33;78.83
13091;DHT22;6611;52.604;13.438;2022-09-09T21:41:29;16.29;78.39
13091;DHT22;6611;52.604;13.438;2022-09-09T21:46:32;16.29;78.02
13091;DHT22;6611;52.604;13.438;2022-09-09T21:51:34;16.32;77.64
13091;DHT22;6611;52.604;13.438;2022-09-09T21:56:36;16.42;76.05
13091;DHT22;6611;52.604;13.438;2022-09-09T22:01:40;16.52;75.64
13091;DHT22;6611;52.604;13.438;2022-09-09T22:06:42;16.52;76.24
13091;DHT22;6611;52.604;13.438;2022-09-09T22:11:43;16.40;77.03
13091;DHT22;6611;52.604;13.438;2022-09-09T22:16:46;16.33;77.14
13091;DHT22;6611;52.604;13.438;2022-09-09T22:21:48;16.21;78.17
13091;DHT22;6611;52.604;13.438;2022-09-09T22:26:49;16.05;79.30
13091;DHT22;6611;52.604;13.438;2022-09-09T22:31:56;16.04;80.02
13091;DHT22;6611;52.604;13.438;2022-09-09T22:36:59;15.91;80.53
13091;DHT22;6611;52.604;13.438;2022-09-09T22:42:01;15.98;79.66
13091;DHT22;6611;52.604;13.438;2022-09-09T22:47:06;15.91;80.54
13091;DHT22;6611;52.604;13.438;2022-09-09T22:52:08;15.84;80.77
13091;DHT22;6611;52.604;13.438;2022-09-09T22:57:10;15.74;81.26
13091;DHT22;6611;52.604;13.438;2022-09-09T23:02:14;15.78;81.12
13091;DHT22;6611;52.604;13.438;2022-09-09T23:07:16;15.69;81.18
13091;DHT22;6611;52.604;13.438;2022-09-09T23:12:22;15.69;81.50
13091;DHT22;6611;52.604;13.438;2022-09-09T23:17:26;15.61;82.32
13091;DHT22;6611;52.604;13.438;2022-09-09T23:22:27;15.63;81.95
13091;DHT22;6611;52.604;13.438;2022-09-09T23:27:30;15.57;81.83
13091;DHT22;6611;52.604;13.438;2022-09-09T23:32:33;15.46;82.87
13091;DHT22;6611;52.604;13.438;2022-09-09T23:37:35;15.39;82.80
13091;DHT22;6611;52.604;13.438;2022-09-09T23:42:36;15.40;83.03
13091;DHT22;6611;52.604;13.438;2022-09-09T23:47:39;15.29;82.72
13091;DHT22;6611;52.604;13.438;2022-09-09T23:52:41;15.22;83.75
13091;DHT22;6611;52.604;13.438;2022-09-09T23:57:43;15.29;83.41
